Mehrabad International Airport


Codes: OIII/THR
Name: Mehrabad International Airport
City: Tehran
Country: Iran
Elevation: 3962 ft.
Wikipedia:

Photos at Mehrabad International Airport


   Photos courtesy of SpottingLog. You can add your own sightings and photos by signing up for a free trial today.



No photos found.

Weather at Mehrabad International Airport


Time (UTC)DescriptionTempratureWindCloud coverageVisibilityPressureHumidity
16-Jun-2024 00:00Few Clouds26°C2 mph, SE20%10000m1012hPa31%
16-Jun-2024 03:00Few Clouds26°C2 mph, E16%10000m1011hPa32%
16-Jun-2024 06:00Clear Sky28°C4 mph, SW10%10000m1009hPa29%
16-Jun-2024 09:00Clear Sky33°C11 mph, SW0%10000m1007hPa20%
16-Jun-2024 12:00Clear Sky35°C13 mph, W2%10000m1005hPa15%
16-Jun-2024 15:00Broken Clouds32°C18 mph, NW75%10000m1006hPa21%
16-Jun-2024 18:00Broken Clouds32°C7 mph, W80%10000m1007hPa18%
16-Jun-2024 21:00Overcast Clouds30°C4 mph, SE85%10000m1008hPa24%
17-Jun-2024 00:00Broken Clouds29°C7 mph, SE55%10000m1009hPa28%
17-Jun-2024 03:00Clear Sky28°C7 mph, SE7%10000m1011hPa29%
17-Jun-2024 06:00Scattered Clouds30°C9 mph, SE31%10000m1012hPa28%
17-Jun-2024 09:00Broken Clouds32°C7 mph, S52%10000m1010hPa23%
17-Jun-2024 12:00Few Clouds34°C9 mph, SW23%10000m1008hPa18%
17-Jun-2024 15:00Clear Sky34°C9 mph, W0%10000m1008hPa15%
17-Jun-2024 18:00Clear Sky32°C7 mph, NW0%10000m1010hPa18%
17-Jun-2024 21:00Clear Sky31°C0 mph, S2%10000m1010hPa23%
18-Jun-2024 00:00Clear Sky28°C2 mph, SE1%10000m1012hPa36%
18-Jun-2024 03:00Clear Sky29°C4 mph, SE0%10000m1013hPa27%
18-Jun-2024 06:00Clear Sky31°C7 mph, S0%10000m1013hPa23%
18-Jun-2024 09:00Clear Sky33°C7 mph, S0%10000m1011hPa20%
18-Jun-2024 12:00Clear Sky36°C9 mph, SW0%10000m1008hPa12%
18-Jun-2024 15:00Broken Clouds35°C18 mph, W57%10000m1009hPa11%
18-Jun-2024 18:00Broken Clouds32°C13 mph, W68%10000m1011hPa19%
18-Jun-2024 21:00Broken Clouds30°C9 mph, SW82%10000m1012hPa28%
19-Jun-2024 00:00Scattered Clouds29°C4 mph, N42%10000m1011hPa31%
19-Jun-2024 03:00Clear Sky29°C0 mph, N5%10000m1011hPa28%
19-Jun-2024 06:00Light Rain31°C13 mph, SE5%10000m1012hPa24%
19-Jun-2024 09:00Light Rain33°C7 mph, SE3%10000m1011hPa19%
19-Jun-2024 12:00Clear Sky34°C7 mph, S0%10000m1007hPa16%
19-Jun-2024 15:00Scattered Clouds34°C9 mph, SE31%10000m1007hPa16%
19-Jun-2024 18:00Light Rain27°C18 mph, N65%10000m1014hPa35%
19-Jun-2024 21:00Light Rain28°C13 mph, NE100%10000m1012hPa25%
20-Jun-2024 00:00Overcast Clouds28°C7 mph, NE94%10000m1010hPa24%
20-Jun-2024 03:00Clear Sky28°C2 mph, NW6%10000m1011hPa27%
20-Jun-2024 06:00Clear Sky30°C7 mph, NW4%10000m1010hPa21%
20-Jun-2024 09:00Clear Sky32°C9 mph, S0%10000m1008hPa19%
20-Jun-2024 12:00Clear Sky34°C9 mph, SW0%10000m1005hPa17%
20-Jun-2024 15:00Clear Sky34°C4 mph, NW4%10000m1005hPa16%
20-Jun-2024 18:00Few Clouds32°C0 mph, SW14%10000m1007hPa19%
20-Jun-2024 21:00Clear Sky30°C7 mph, SW5%10000m1008hPa25%